Time;durP1;ratioP1;P1;durP2;ratioP2;P2;SDS_P1;SDS_P2;PMS_P1;PMS_P2;Temp;Humidity;BMP_temperature;BMP_pressure;BME280_temperature;BME280_humidity;BME280_pressure;Samples;Min_cycle;Max_cycle;Signal;HPM_P1;HPM_P2
2021/04/21 00:01:23;;;;;;;7.15;6.57;;;;;;;19.75;46.50;101426.72;5001673;28;20249;-46
2021/04/21 00:03:48;;;;;;;10.13;7.10;;;;;;;19.75;46.22;101426.72;5004699;28;20033;-48
2021/04/21 00:06:14;;;;;;;6.82;6.43;;;;;;;19.73;46.31;101429.75;4968991;28;20051;-47
2021/04/21 00:08:39;;;;;;;8.02;7.03;;;;;;;19.72;46.17;101417.41;5002917;28;20052;-47
2021/04/21 00:11:05;;;;;;;6.88;6.28;;;;;;;19.72;46.18;101424.69;4986742;28;20572;-46
2021/04/21 00:13:30;;;;;;;7.32;6.80;;;;;;;19.70;46.32;101419.59;5003348;28;20046;-46
2021/04/21 00:15:56;;;;;;;7.43;6.90;;;;;;;19.69;46.34;101426.13;5002950;28;20044;-46
2021/04/21 00:18:21;;;;;;;8.07;6.80;;;;;;;19.70;46.22;101426.94;5002492;28;20056;-48
2021/04/21 00:20:52;;;;;;;8.20;7.30;;;;;;;19.69;46.25;101425.34;5002587;28;20129;-49
2021/04/21 00:23:18;;;;;;;7.28;6.68;;;;;;;19.67;46.11;101427.59;5002896;28;20042;-47
2021/04/21 00:25:43;;;;;;;8.15;7.43;;;;;;;19.66;46.36;101418.69;4985961;28;20048;-47
2021/04/21 00:28:08;;;;;;;7.70;7.00;;;;;;;19.66;46.14;101426.00;5002380;28;20040;-46
2021/04/21 00:30:34;;;;;;;7.60;7.00;;;;;;;19.65;46.23;101429.78;5004501;28;20046;-46
2021/04/21 00:33:00;;;;;;;7.15;6.60;;;;;;;19.63;46.12;101426.66;5002129;28;20463;-46
2021/04/21 00:35:35;;;;;;;7.95;7.28;;;;;;;19.63;46.19;101426.66;5002534;28;20034;-47
2021/04/21 00:38:02;;;;;;;7.55;6.95;;;;;;;19.61;46.23;101421.59;5003901;28;20042;-47
2021/04/21 00:40:34;;;;;;;12.05;6.80;;;;;;;19.61;46.20;101424.28;5002237;28;20503;-47
2021/04/21 00:43:09;;;;;;;7.53;6.82;;;;;;;19.62;46.35;101427.78;5002005;28;20054;-46
2021/04/21 00:45:39;;;;;;;11.93;7.47;;;;;;;19.61;46.14;101435.06;4985542;28;20038;-47
2021/04/21 00:48:09;;;;;;;8.23;7.50;;;;;;;19.59;46.25;101439.22;5001865;28;20065;-46
2021/04/21 00:50:50;;;;;;;7.65;6.95;;;;;;;19.58;46.09;101437.63;5001215;28;20539;-47
2021/04/21 00:53:31;;;;;;;8.25;7.50;;;;;;;19.57;46.18;101430.66;5003962;28;20136;-47
2021/04/21 00:56:09;;;;;;;7.90;7.35;;;;;;;19.55;46.14;101431.00;5003822;28;20045;-46
2021/04/21 00:58:59;;;;;;;7.40;6.82;;;;;;;19.55;45.88;101430.19;4986171;28;20404;-45
2021/04/21 01:01:24;;;;;;;8.20;7.40;;;;;;;19.55;45.83;101432.88;4984482;28;20038;-46
2021/04/21 01:03:51;;;;;;;9.25;7.03;;;;;;;19.54;46.22;101432.09;4985276;28;20073;-46
2021/04/21 01:06:18;;;;;;;10.52;7.25;;;;;;;19.51;46.33;101432.75;5001441;28;20046;-47
2021/04/21 01:08:50;;;;;;;8.52;7.70;;;;;;;19.51;46.33;101427.34;4986161;28;20034;-46
2021/04/21 01:11:23;;;;;;;8.57;7.78;;;;;;;19.49;46.12;101429.59;5003015;28;20506;-46
2021/04/21 01:13:51;;;;;;;8.82;8.02;;;;;;;19.49;46.06;101429.59;5002307;28;20515;-46
2021/04/21 01:16:18;;;;;;;8.02;7.43;;;;;;;19.48;45.84;101430.72;5017358;28;20065;-45
2021/04/21 01:18:44;;;;;;;8.40;7.60;;;;;;;19.46;46.08;101424.84;5003722;28;20091;-46
2021/04/21 01:21:15;;;;;;;9.05;8.25;;;;;;;19.46;45.95;101428.34;5001213;28;20037;-45
2021/04/21 01:24:10;;;;;;;8.38;7.68;;;;;;;19.44;45.83;101427.88;5002250;28;20125;-45
2021/04/21 01:26:39;;;;;;;8.35;7.75;;;;;;;19.44;46.03;101429.78;4983453;28;20061;-45
2021/04/21 01:29:04;;;;;;;8.52;7.93;;;;;;;19.42;45.95;101427.44;5002403;28;20040;-46
2021/04/21 01:31:31;;;;;;;8.90;8.00;;;;;;;19.42;46.13;101423.94;5001655;28;20038;-46
2021/04/21 01:33:56;;;;;;;9.07;8.18;;;;;;;19.40;45.90;101420.75;4985048;28;20029;-46
2021/04/21 01:36:23;;;;;;;8.60;7.80;;;;;;;19.39;45.90;101419.19;4984849;28;20152;-47
2021/04/21 01:38:48;;;;;;;9.43;8.60;;;;;;;19.39;45.89;101424.59;5002250;28;20411;-46
2021/04/21 01:41:17;;;;;;;8.82;7.97;;;;;;;19.37;46.05;101424.09;5001383;28;20045;-45
2021/04/21 01:43:45;;;;;;;9.25;8.55;;;;;;;19.36;46.01;101419.81;5002672;28;20049;-48
2021/04/21 01:46:11;;;;;;;8.82;8.23;;;;;;;19.34;45.85;101417.44;5017430;28;20439;-49
2021/04/21 01:48:36;;;;;;;9.05;8.25;;;;;;;19.35;45.90;101413.63;4985362;28;20041;-47
2021/04/21 01:51:06;;;;;;;9.23;8.38;;;;;;;19.34;45.88;101422.81;5000981;28;20033;-48
2021/04/21 01:53:39;;;;;;;9.93;9.15;;;;;;;19.33;45.80;101420.47;5001938;28;20044;-47
2021/04/21 01:56:31;;;;;;;10.43;9.20;;;;;;;19.31;45.86;101417.31;5000277;28;20045;-50
2021/04/21 01:59:11;;;;;;;9.32;8.63;;;;;;;19.30;45.76;101418.41;5002424;28;20267;-49
2021/04/21 02:01:52;;;;;;;10.07;9.25;;;;;;;19.29;45.47;101412.22;4998759;28;20050;-51
2021/04/21 02:04:44;;;;;;;10.45;9.45;;;;;;;19.28;45.75;101413.38;5001525;28;20046;-51
2021/04/21 02:07:25;;;;;;;9.30;8.52;;;;;;;19.28;45.74;101417.97;5000952;28;20050;-51
2021/04/21 02:10:11;;;;;;;12.25;9.40;;;;;;;19.27;45.84;101410.97;5001896;28;20026;-46
2021/04/21 02:12:53;;;;;;;9.25;8.45;;;;;;;19.26;45.72;101415.56;5001151;28;20050;-48
2021/04/21 02:15:56;;;;;;;10.40;9.50;;;;;;;19.25;45.61;101421.31;4999818;28;20053;-46
2021/04/21 02:18:27;;;;;;;10.68;9.77;;;;;;;19.23;45.75;101405.47;4999986;28;20696;-47
2021/04/21 02:21:14;;;;;;;9.95;9.10;;;;;;;19.22;45.70;101413.84;4983434;28;20124;-48
2021/04/21 02:23:46;;;;;;;10.55;9.57;;;;;;;19.22;45.77;101419.25;5002080;28;20129;-49
2021/04/21 02:26:32;;;;;;;10.23;9.43;;;;;;;19.19;45.62;101415.31;5000015;28;20045;-47
2021/04/21 02:29:00;;;;;;;10.07;9.27;;;;;;;19.20;45.69;101424.19;5002773;28;20084;-45
2021/04/21 02:31:46;;;;;;;10.43;9.55;;;;;;;19.18;45.60;101418.34;5000672;28;20065;-46
2021/04/21 02:34:32;;;;;;;9.88;9.07;;;;;;;19.17;45.80;101422.94;5001586;28;20034;-49
2021/04/21 02:37:20;;;;;;;10.77;9.77;;;;;;;19.17;45.70;101422.94;5000878;28;20124;-48
2021/04/21 02:39:59;;;;;;;11.02;9.93;;;;;;;19.15;45.60;101421.69;5001967;28;20435;-48
2021/04/21 02:42:34;;;;;;;9.70;8.80;;;;;;;19.14;45.72;101422.78;5004719;28;20061;-46
2021/04/21 02:45:27;;;;;;;10.32;9.43;;;;;;;19.15;45.89;101422.47;5005105;28;20105;-50
2021/04/21 02:47:59;;;;;;;9.25;8.55;;;;;;;19.13;45.87;101427.38;5005843;28;20041;-50
2021/04/21 02:50:32;;;;;;;10.65;9.55;;;;;;;19.11;45.87;101418.84;5004146;28;20034;-47
2021/04/21 02:53:32;;;;;;;9.27;8.55;;;;;;;19.12;45.68;101430.41;5004897;28;20759;-48
2021/04/21 02:56:06;;;;;;;10.23;9.32;;;;;;;19.11;45.68;101421.53;5005876;28;20046;-49
2021/04/21 02:58:34;;;;;;;11.05;9.90;;;;;;;19.10;45.58;101428.00;5003980;28;20034;-46
2021/04/21 03:01:09;;;;;;;11.27;10.18;;;;;;;19.10;45.58;101427.25;5006102;28;20068;-47
2021/04/21 03:03:54;;;;;;;10.00;9.20;;;;;;;19.07;45.63;101420.56;4988331;28;21989;-46
2021/04/21 03:06:22;;;;;;;9.85;8.95;;;;;;;19.07;45.79;101428.66;5003669;28;20046;-47
2021/04/21 03:08:49;;;;;;;9.50;8.75;;;;;;;19.08;45.81;101434.84;5004220;28;20038;-47
2021/04/21 03:11:26;;;;;;;10.00;9.30;;;;;;;19.06;45.82;101421.72;5004231;28;20041;-46
2021/04/21 03:14:13;;;;;;;9.90;9.00;;;;;;;19.05;45.73;101420.13;4987948;28;21255;-51
2021/04/21 03:16:40;;;;;;;10.80;9.70;;;;;;;19.05;45.80;101424.72;5005140;28;20133;-49
2021/04/21 03:19:06;;;;;;;10.02;9.13;;;;;;;19.02;45.74;101412.69;4988122;28;20033;-50
2021/04/21 03:21:36;;;;;;;10.90;9.80;;;;;;;19.04;45.62;101428.53;4999147;28;20041;-47
2021/04/21 03:24:11;;;;;;;10.65;9.77;;;;;;;19.02;45.64;101428.03;5003589;28;20048;-45
2021/04/21 03:26:36;;;;;;;10.68;9.68;;;;;;;19.00;45.78;101424.91;5005005;28;20042;-45
2021/04/21 03:29:02;;;;;;;10.25;9.45;;;;;;;18.99;45.58;101426.78;5003932;28;20104;-46
2021/04/21 03:31:30;;;;;;;10.45;9.63;;;;;;;18.99;45.47;101431.41;5003739;28;20042;-48
2021/04/21 03:33:56;;;;;;;10.18;9.18;;;;;;;18.97;45.71;101420.94;5004216;28;20111;-47
2021/04/21 03:36:22;;;;;;;9.70;8.90;;;;;;;18.98;45.81;101432.53;5003328;28;20428;-46
2021/04/21 03:38:47;;;;;;;10.07;9.18;;;;;;;18.97;45.59;101428.22;5003837;28;20082;-46
2021/04/21 03:41:13;;;;;;;10.15;9.30;;;;;;;18.96;45.81;101424.78;5003555;28;20046;-45
2021/04/21 03:43:39;;;;;;;10.27;9.40;;;;;;;18.94;45.74;101424.28;5003960;28;20045;-45
2021/04/21 03:46:04;;;;;;;11.15;10.07;;;;;;;18.94;45.47;101429.66;5003899;28;20034;-47
2021/04/21 03:48:32;;;;;;;10.63;9.73;;;;;;;18.92;45.73;101427.31;4986343;28;20044;-47
2021/04/21 03:50:57;;;;;;;11.07;10.20;;;;;;;18.93;45.69;101431.56;5003384;28;20038;-47
2021/04/21 03:53:25;;;;;;;10.98;10.00;;;;;;;18.93;45.54;101430.81;4986905;28;20139;-48
2021/04/21 03:55:50;;;;;;;10.95;9.98;;;;;;;18.91;45.62;101417.66;5003199;28;20030;-47
2021/04/21 03:58:19;;;;;;;10.60;9.70;;;;;;;18.90;45.80;101424.16;5003173;28;20145;-45
2021/04/21 04:00:44;;;;;;;10.52;9.63;;;;;;;18.90;45.71;101423.38;4986611;28;20046;-48
2021/04/21 04:03:14;;;;;;;12.65;10.30;;;;;;;18.90;45.68;101418.78;4986243;28;20046;-47
2021/04/21 04:05:45;;;;;;;11.20;10.30;;;;;;;18.89;45.57;101416.38;4987271;28;20044;-49
2021/04/21 04:08:12;;;;;;;10.27;9.32;;;;;;;18.88;45.69;101418.28;5004205;28;20088;-46
2021/04/21 04:10:38;;;;;;;11.10;10.00;;;;;;;18.87;45.66;101419.41;5002738;28;20048;-46
2021/04/21 04:13:05;;;;;;;11.55;10.40;;;;;;;18.87;46.04;101421.31;5004443;28;20042;-46
2021/04/21 04:15:30;;;;;;;11.40;10.40;;;;;;;18.87;45.96;101419.41;5002736;28;20081;-46
2021/04/21 04:17:56;;;;;;;11.73;10.52;;;;;;;18.87;45.89;101426.69;5002926;28;20052;-47
2021/04/21 04:20:21;;;;;;;11.27;10.27;;;;;;;18.85;45.78;101418.94;5003738;28;20496;-48
2021/04/21 04:22:50;;;;;;;11.93;10.88;;;;;;;18.85;45.80;101427.00;5019416;28;20050;-46
2021/04/21 04:25:16;;;;;;;12.00;10.80;;;;;;;18.85;46.03;101429.69;5001870;28;20060;-47
2021/04/21 04:27:42;;;;;;;12.10;11.00;;;;;;;18.84;45.81;101425.44;5004208;28;20404;-45
2021/04/21 04:30:08;;;;;;;11.98;10.88;;;;;;;18.84;45.93;101424.66;5002340;28;20044;-46
2021/04/21 04:32:33;;;;;;;12.30;11.10;;;;;;;18.83;45.91;101429.25;5003935;28;20038;-46
2021/04/21 04:34:59;;;;;;;11.77;10.77;;;;;;;18.83;46.06;101431.94;5002832;28;20470;-47
2021/04/21 04:37:26;;;;;;;11.75;10.77;;;;;;;18.82;46.05;101435.72;5017154;28;20091;-47
2021/04/21 04:39:52;;;;;;;12.00;10.90;;;;;;;18.82;45.93;101440.34;5002941;28;20034;-50
2021/04/21 04:42:17;;;;;;;13.68;11.50;;;;;;;18.81;45.89;101444.94;5001820;28;20038;-48
2021/04/21 04:44:44;;;;;;;11.80;10.80;;;;;;;18.80;45.90;101439.84;5002660;28;20653;-47
2021/04/21 04:47:13;;;;;;;11.60;10.70;;;;;;;18.80;45.99;101440.66;5017885;28;20110;-49
2021/04/21 04:49:43;;;;;;;12.05;10.88;;;;;;;18.79;46.05;101439.09;5000890;28;20070;-51
2021/04/21 04:52:08;;;;;;;11.93;10.77;;;;;;;18.80;46.29;101439.84;4999604;28;20042;-51
2021/04/21 04:54:35;;;;;;;12.00;10.90;;;;;;;18.79;46.22;101443.69;5002488;28;20040;-48
2021/04/21 04:57:02;;;;;;;12.50;11.30;;;;;;;18.78;46.41;101442.88;5001616;28;20437;-47
2021/04/21 04:59:27;;;;;;;12.50;11.40;;;;;;;18.79;46.26;101446.38;5016464;28;20121;-47
2021/04/21 05:01:56;;;;;;;12.38;11.13;;;;;;;18.77;46.18;101435.91;5000398;28;20072;-46
2021/04/21 05:04:25;;;;;;;11.63;10.63;;;;;;;18.77;46.30;101441.28;5018021;28;20088;-50
2021/04/21 05:06:56;;;;;;;12.02;11.02;;;;;;;18.76;46.24;101445.13;4999922;28;20046;-48
2021/04/21 05:09:22;;;;;;;12.30;11.25;;;;;;;18.76;46.55;101450.50;5003412;28;20041;-45
2021/04/21 05:11:47;;;;;;;12.65;11.32;;;;;;;18.75;46.53;101459.69;5005132;28;20048;-46
2021/04/21 05:14:14;;;;;;;12.98;11.77;;;;;;;18.75;46.43;101464.25;5019682;28;20038;-47
2021/04/21 05:16:55;;;;;;;11.90;11.00;;;;;;;18.74;46.48;101462.69;5024374;28;20366;-52
2021/04/21 05:19:30;;;;;;;11.82;10.68;;;;;;;18.73;46.50;101459.22;5010755;28;20045;-50
2021/04/21 05:22:26;;;;;;;12.57;11.52;;;;;;;18.74;46.43;101463.47;5010549;28;20045;-49
2021/04/21 05:25:11;;;;;;;12.27;11.35;;;;;;;18.75;46.35;101469.66;5005471;28;20439;-46
2021/04/21 05:27:58;;;;;;;12.35;11.30;;;;;;;18.74;46.48;101473.47;5003815;28;20044;-47
2021/04/21 05:30:44;;;;;;;13.68;12.18;;;;;;;18.74;46.74;101468.84;5001714;28;20087;-48
2021/04/21 05:33:34;;;;;;;11.98;10.98;;;;;;;18.74;46.92;101468.09;5014821;28;20054;-50
2021/04/21 05:36:24;;;;;;;13.43;12.10;;;;;;;18.77;48.15;101472.84;5002068;28;20046;-48
2021/04/21 05:39:11;;;;;;;16.98;12.30;;;;;;;18.81;50.35;101471.06;4999549;28;20043;-51
2021/04/21 05:42:13;;;;;;;14.38;11.93;;;;;;;18.84;51.58;101473.13;5001725;28;20053;-48
2021/04/21 05:45:03;;;;;;;27.30;11.80;;;;;;;18.83;52.09;101474.22;5015485;28;20508;-51
2021/04/21 05:47:47;;;;;;;13.75;12.38;;;;;;;18.82;52.82;101483.44;5000081;28;20132;-51
2021/04/21 05:50:19;;;;;;;14.93;12.60;;;;;;;18.79;52.35;101470.59;4999627;28;20530;-46
2021/04/21 05:53:22;;;;;;;13.55;12.15;;;;;;;18.78;51.68;101474.41;5002242;28;20073;-48
2021/04/21 05:56:05;;;;;;;13.00;11.50;;;;;;;18.76;51.40;101473.94;5001634;28;20042;-50
2021/04/21 05:59:04;;;;;;;13.40;11.85;;;;;;;18.76;50.65;101468.53;5001736;28;20042;-50
2021/04/21 06:01:34;;;;;;;13.30;12.10;;;;;;;18.75;50.60;101478.53;5015459;28;20139;-51
2021/04/21 06:03:59;;;;;;;13.82;12.43;;;;;;;18.76;49.95;101471.25;5001304;28;20503;-48
2021/04/21 06:06:25;;;;;;;13.45;12.25;;;;;;;18.74;49.70;101473.47;4984505;28;20042;-50
2021/04/21 06:08:51;;;;;;;13.13;11.88;;;;;;;18.73;49.64;101469.97;5000275;28;20042;-50
2021/04/21 06:11:20;;;;;;;13.63;12.43;;;;;;;18.73;49.29;101478.06;5001808;28;20041;-49
2021/04/21 06:13:46;;;;;;;13.30;12.02;;;;;;;18.73;49.05;101469.19;5018949;28;20412;-48
2021/04/21 06:16:16;;;;;;;12.90;11.70;;;;;;;18.72;49.02;101479.16;5004042;28;20038;-50
2021/04/21 06:18:42;;;;;;;14.00;12.70;;;;;;;18.72;48.71;101476.47;5007493;28;20486;-46
2021/04/21 06:21:15;;;;;;;13.95;12.52;;;;;;;18.73;49.01;101480.75;5003360;28;20045;-50
2021/04/21 06:23:41;;;;;;;14.63;13.32;;;;;;;18.73;48.95;101480.75;5021126;28;20088;-52
2021/04/21 06:26:06;;;;;;;14.68;13.38;;;;;;;18.74;49.32;101481.56;5021448;28;20056;-51
2021/04/21 06:28:32;;;;;;;14.70;13.50;;;;;;;18.74;49.96;101489.63;5005300;28;20041;-47
2021/04/21 06:31:07;;;;;;;15.15;13.65;;;;;;;18.74;50.18;101501.16;5006646;28;20041;-51
2021/04/21 06:33:33;;;;;;;14.52;13.23;;;;;;;18.75;50.23;101489.28;5021646;28;20042;-45
2021/04/21 06:35:59;;;;;;;15.68;14.07;;;;;;;18.75;50.45;101502.75;5006707;28;20044;-46
2021/04/21 06:38:27;;;;;;;14.73;13.52;;;;;;;18.74;50.32;101505.78;5017626;28;20046;-46
2021/04/21 06:40:53;;;;;;;16.67;13.52;;;;;;;18.72;49.90;101506.09;4985568;28;20081;-48
2021/04/21 06:43:23;;;;;;;15.48;14.05;;;;;;;18.69;49.53;101505.91;5004309;28;20049;-45
2021/04/21 06:45:50;;;;;;;15.40;13.88;;;;;;;18.70;49.60;101502.94;5003690;28;20848;-45
2021/04/21 06:48:15;;;;;;;15.43;13.80;;;;;;;18.70;49.36;101507.50;5003227;28;20577;-50
2021/04/21 06:50:41;;;;;;;15.40;13.77;;;;;;;18.70;49.42;101502.13;5005744;28;20038;-46
2021/04/21 06:53:08;;;;;;;16.23;14.82;;;;;;;18.76;49.23;101508.94;5001623;28;20454;-48
2021/04/21 06:55:35;;;;;;;16.58;14.95;;;;;;;18.91;49.15;101506.53;5002139;28;20045;-46
2021/04/21 06:58:02;;;;;;;18.00;16.20;;;;;;;19.00;48.62;101501.13;5002948;28;20042;-46
2021/04/21 07:00:28;;;;;;;16.17;14.48;;;;;;;19.05;48.24;101503.63;5003149;28;20045;-46
2021/04/21 07:02:55;;;;;;;16.10;14.60;;;;;;;19.12;48.89;101500.44;5005139;28;20499;-49
2021/04/21 07:05:42;;;;;;;15.50;14.00;;;;;;;19.15;48.53;101508.69;5004088;28;20057;-50
2021/04/21 07:08:07;;;;;;;16.83;15.23;;;;;;;19.18;48.57;101512.63;5004798;28;20121;-43
2021/04/21 07:10:37;;;;;;;17.15;15.35;;;;;;;19.21;48.56;101520.06;5005932;28;20128;-44
2021/04/21 07:13:04;;;;;;;18.40;16.42;;;;;;;19.24;48.41;101520.19;5004714;28;20614;-46
2021/04/21 07:15:30;;;;;;;15.48;13.88;;;;;;;19.25;48.35;101527.19;5020439;28;20038;-45
2021/04/21 07:17:55;;;;;;;17.40;15.43;;;;;;;19.29;48.74;101522.72;5003616;28;20160;-42
2021/04/21 07:20:21;;;;;;;13.50;12.30;;;;;;;19.28;48.65;101525.75;5023919;28;20740;-42
2021/04/21 07:22:46;;;;;;;15.68;14.27;;;;;;;19.30;48.27;101524.31;5004421;28;20468;-44
2021/04/21 07:25:15;;;;;;;15.07;12.52;;;;;;;19.31;48.65;101535.88;5004569;28;20045;-46
2021/04/21 07:27:42;;;;;;;14.00;12.73;;;;;;;19.35;48.20;101529.50;5003169;28;20044;-46
2021/04/21 07:30:08;;;;;;;13.25;12.10;;;;;;;19.36;48.19;101528.41;5002401;28;20669;-47
2021/04/21 07:32:42;;;;;;;15.70;13.93;;;;;;;19.38;47.94;101528.91;5018551;28;20042;-45
2021/04/21 07:35:10;;;;;;;16.75;14.98;;;;;;;19.41;47.91;101524.78;5001778;28;20042;-43
2021/04/21 07:37:36;;;;;;;16.38;14.88;;;;;;;19.45;48.11;101534.56;5004255;28;20084;-46
2021/04/21 07:40:34;;;;;;;16.23;14.80;;;;;;;19.51;48.68;101529.78;4992326;28;20079;-45
2021/04/21 07:43:04;;;;;;;16.52;14.68;;;;;;;19.57;48.18;101530.41;5002131;28;20815;-44
2021/04/21 07:46:01;;;;;;;16.48;14.88;;;;;;;19.59;48.26;101531.66;4999136;28;20050;-45
2021/04/21 07:48:33;;;;;;;16.50;14.93;;;;;;;19.60;47.68;101527.06;5001596;28;20052;-45
2021/04/21 07:51:14;;;;;;;15.82;14.18;;;;;;;19.62;47.76;101538.31;5003028;28;20115;-44
2021/04/21 07:54:15;;;;;;;14.77;13.43;;;;;;;19.56;48.22;101529.63;5003841;28;20538;-48
2021/04/21 07:56:51;;;;;;;16.27;13.23;;;;;;;19.51;50.31;101538.66;5000686;28;20041;-49
2021/04/21 07:59:21;;;;;;;15.68;13.25;;;;;;;19.49;51.11;101535.53;5002856;28;20052;-50
2021/04/21 08:01:47;;;;;;;13.63;12.52;;;;;;;19.50;50.40;101541.72;5003504;28;20116;-48
2021/04/21 08:04:24;;;;;;;13.52;12.23;;;;;;;19.47;49.38;101540.44;5003168;28;20125;-47
2021/04/21 08:06:55;;;;;;;13.23;11.93;;;;;;;19.44;48.69;101541.09;5001122;28;20087;-48
2021/04/21 08:09:21;;;;;;;12.90;11.70;;;;;;;19.38;48.05;101541.59;4999890;28;20084;-46
2021/04/21 08:12:05;;;;;;;14.13;12.82;;;;;;;19.30;47.75;101545.06;5001481;28;20030;-46
2021/04/21 08:14:41;;;;;;;12.32;11.13;;;;;;;19.31;47.76;101552.84;5001912;28;20052;-45
2021/04/21 08:17:06;;;;;;;12.60;11.55;;;;;;;19.47;46.84;101545.03;4994124;28;20037;-46
2021/04/21 08:19:40;;;;;;;10.25;9.32;;;;;;;19.51;46.54;101552.16;5001057;28;21481;-42
2021/04/21 08:22:06;;;;;;;12.40;11.10;;;;;;;19.63;46.58;101546.09;4998477;28;20087;-43
2021/04/21 08:24:44;;;;;;;12.50;11.40;;;;;;;19.63;46.48;101554.16;5000736;28;20050;-43
2021/04/21 08:27:14;;;;;;;12.90;11.80;;;;;;;19.65;46.56;101551.13;5016667;28;20045;-45
2021/04/21 08:29:40;;;;;;;12.43;11.13;;;;;;;19.65;46.64;101557.31;5001287;28;20045;-43
2021/04/21 08:32:06;;;;;;;12.45;11.32;;;;;;;19.70;46.57;101554.44;5001448;28;20030;-46
2021/04/21 08:34:31;;;;;;;11.65;10.55;;;;;;;19.68;46.35;101561.28;5001757;28;20062;-44
2021/04/21 08:36:57;;;;;;;12.00;10.80;;;;;;;19.60;45.95;101560.22;5017177;28;20049;-48
2021/04/21 08:39:22;;;;;;;11.95;10.95;;;;;;;19.67;46.24;101567.81;4999655;28;20034;-44
2021/04/21 08:41:48;;;;;;;11.80;10.68;;;;;;;19.68;46.08;101561.28;5003058;28;20069;-45
2021/04/21 08:44:13;;;;;;;12.70;10.85;;;;;;;19.72;45.89;101554.94;5001662;28;20096;-43
2021/04/21 08:46:39;;;;;;;11.52;10.52;;;;;;;19.74;45.78;101559.97;5002012;28;20045;-41
2021/04/21 08:49:05;;;;;;;11.10;10.20;;;;;;;19.75;45.84;101564.28;5002438;28;20120;-41
2021/04/21 08:51:31;;;;;;;11.43;10.50;;;;;;;19.80;45.74;101569.47;5001443;28;20114;-41
2021/04/21 08:54:05;;;;;;;11.10;10.15;;;;;;;19.69;45.71;101570.97;5001093;28;20034;-48
2021/04/21 08:56:32;;;;;;;11.98;10.73;;;;;;;19.69;45.56;101570.97;5016328;28;20081;-46
2021/04/21 08:58:59;;;;;;;11.57;10.52;;;;;;;19.70;45.74;101572.56;5002544;28;20038;-45
2021/04/21 09:01:24;;;;;;;12.75;10.70;;;;;;;19.77;45.72;101579.00;4999633;28;20046;-43
2021/04/21 09:03:49;;;;;;;10.55;9.60;;;;;;;19.78;45.54;101583.28;5000978;28;20804;-49
2021/04/21 09:06:17;;;;;;;10.73;9.65;;;;;;;19.75;45.60;101577.75;5016913;28;20061;-52
2021/04/21 09:08:42;;;;;;;10.90;9.85;;;;;;;19.78;45.75;101577.88;5000259;28;20034;-50
2021/04/21 09:11:08;;;;;;;10.90;9.90;;;;;;;19.79;45.48;101584.06;5016483;28;20096;-51
2021/04/21 09:13:34;;;;;;;9.75;8.93;;;;;;;19.85;45.53;101580.06;5002227;28;20119;-49
2021/04/21 09:15:59;;;;;;;9.80;9.02;;;;;;;19.85;44.80;101577.38;5000238;28;20091;-45
2021/04/21 09:18:31;;;;;;;9.55;8.55;;;;;;;19.81;44.35;101577.22;5016406;28;20153;-43
2021/04/21 09:20:58;;;;;;;9.98;9.18;;;;;;;19.83;44.47;101585.81;5001594;28;20045;-46
2021/04/21 09:23:23;;;;;;;9.90;8.90;;;;;;;19.89;44.97;101584.50;5001609;28;20065;-43
2021/04/21 09:25:53;;;;;;;8.55;7.85;;;;;;;20.01;44.47;101589.97;5002542;28;20083;-43
2021/04/21 09:28:20;;;;;;;10.07;8.98;;;;;;;19.91;44.19;101589.56;5016729;28;20053;-44
2021/04/21 09:30:53;;;;;;;9.30;8.50;;;;;;;19.84;44.12;101595.47;5001064;28;20109;-44
2021/04/21 09:33:19;;;;;;;9.68;8.75;;;;;;;19.87;44.09;101594.03;4997608;28;20175;-48
2021/04/21 09:35:45;;;;;;;10.27;9.27;;;;;;;19.88;43.88;101596.41;4994635;28;20635;-45
2021/04/21 09:38:15;;;;;;;8.85;8.05;;;;;;;19.90;43.86;101596.88;4999439;28;20069;-43
2021/04/21 09:40:46;;;;;;;9.23;8.25;;;;;;;20.00;43.57;101606.47;5001583;28;20046;-47
2021/04/21 09:43:22;;;;;;;9.57;8.57;;;;;;;19.97;43.72;101605.22;5000433;28;20432;-43
2021/04/21 09:45:55;;;;;;;10.20;9.20;;;;;;;19.99;43.70;101604.91;5002296;28;20060;-46
2021/04/21 09:48:35;;;;;;;10.13;9.13;;;;;;;20.02;43.63;101601.56;5000714;28;20069;-47
2021/04/21 09:51:06;;;;;;;9.88;8.98;;;;;;;20.00;43.69;101609.19;5003014;28;20049;-44
2021/04/21 09:54:01;;;;;;;9.85;9.00;;;;;;;19.99;43.63;101604.91;5000173;28;20104;-45
2021/04/21 09:56:26;;;;;;;9.38;8.68;;;;;;;19.99;43.92;101608.41;5000236;28;20526;-45
2021/04/21 09:58:52;;;;;;;10.07;9.10;;;;;;;20.00;43.58;101609.97;5002650;28;20042;-44
2021/04/21 10:01:32;;;;;;;9.73;8.85;;;;;;;20.04;43.39;101608.22;5002368;28;20061;-45
2021/04/21 10:04:03;;;;;;;9.40;8.60;;;;;;;20.07;43.31;101615.66;5001978;28;20622;-48
2021/04/21 10:06:29;;;;;;;9.95;9.05;;;;;;;20.10;43.39;101617.72;5002736;28;20046;-44
2021/04/21 10:08:54;;;;;;;10.27;9.38;;;;;;;20.08;43.31;101619.16;5018066;28;20092;-44
2021/04/21 10:11:19;;;;;;;9.65;8.68;;;;;;;20.07;43.38;101617.56;5001444;28;20044;-43
2021/04/21 10:13:46;;;;;;;9.18;8.38;;;;;;;20.08;43.58;101613.75;5001777;28;20050;-44
2021/04/21 10:16:12;;;;;;;10.60;9.57;;;;;;;20.14;43.75;101615.13;4998225;28;20046;-39
2021/04/21 10:18:38;;;;;;;10.93;9.88;;;;;;;20.07;43.45;101612.19;5002563;28;20038;-38
2021/04/21 10:21:04;;;;;;;10.50;9.50;;;;;;;20.10;43.56;101609.63;5000945;28;20055;-43
2021/04/21 10:23:29;;;;;;;10.98;10.07;;;;;;;20.14;43.26;101603.56;5002899;28;20034;-47
2021/04/21 10:25:55;;;;;;;10.48;9.57;;;;;;;20.16;43.97;101604.03;5002719;28;20065;-45
2021/04/21 10:28:22;;;;;;;11.10;10.15;;;;;;;20.14;43.86;101615.13;5001177;28;20050;-48
2021/04/21 10:30:47;;;;;;;10.88;9.98;;;;;;;20.05;44.16;101615.19;5000612;28;20053;-49
2021/04/21 10:33:14;;;;;;;11.98;10.98;;;;;;;20.06;43.32;101621.38;5000274;28;20050;-47
2021/04/21 10:35:39;;;;;;;11.73;10.52;;;;;;;20.00;43.38;101614.56;5001478;28;20091;-51
2021/04/21 10:38:04;;;;;;;11.82;10.82;;;;;;;19.97;43.33;101612.56;5016367;28;20046;-48
2021/04/21 10:40:30;;;;;;;12.52;11.32;;;;;;;20.00;43.05;101607.28;5017298;28;20034;-46
2021/04/21 10:43:03;;;;;;;9.50;8.45;;;;;;;19.92;43.24;101604.63;5002785;28;20522;-51
2021/04/21 10:45:28;;;;;;;12.35;10.32;;;;;;;19.90;43.43;101610.34;5012314;28;20216;-48
2021/04/21 10:47:55;;;;;;;9.82;9.02;;;;;;;19.88;43.28;101611.81;5001810;28;20038;-49
2021/04/21 10:50:33;;;;;;;11.25;10.30;;;;;;;19.91;42.97;101611.94;5000574;28;20052;-46
2021/04/21 10:52:58;;;;;;;10.55;9.60;;;;;;;19.86;43.18;101612.09;5001092;28;20046;-45
2021/04/21 10:55:35;;;;;;;9.52;8.63;;;;;;;19.87;43.55;101619.09;5000912;28;20107;-47
2021/04/21 10:58:07;;;;;;;12.23;11.07;;;;;;;19.95;42.75;101599.38;5002074;28;20084;-45
2021/04/21 11:00:37;;;;;;;10.85;9.95;;;;;;;19.88;42.80;101609.91;5002944;28;20034;-45
2021/04/21 11:03:07;;;;;;;12.00;10.90;;;;;;;19.86;43.12;101611.34;5002032;28;20046;-47
2021/04/21 11:05:43;;;;;;;11.52;10.50;;;;;;;19.83;43.39;101606.59;5005357;28;20483;-44
2021/04/21 11:08:16;;;;;;;12.13;11.10;;;;;;;19.95;42.39;101612.88;5004425;28;20065;-43
2021/04/21 11:10:47;;;;;;;11.68;10.52;;;;;;;19.88;42.47;101614.50;5001682;28;20048;-45
2021/04/21 11:13:25;;;;;;;12.27;11.02;;;;;;;19.94;43.05;101614.00;5028965;28;20500;-44
2021/04/21 11:15:51;;;;;;;10.27;9.27;;;;;;;20.01;43.53;101629.66;5033201;28;20045;-37
2021/04/21 11:18:29;;;;;;;11.35;10.25;;;;;;;19.99;43.34;101621.91;5011937;28;20397;-41
2021/04/21 11:20:56;;;;;;;10.35;9.55;;;;;;;20.07;42.96;101625.66;5006302;28;20519;-40
2021/04/21 11:23:54;;;;;;;10.50;9.50;;;;;;;20.05;42.97;101627.91;5006244;28;20042;-39
2021/04/21 11:26:22;;;;;;;11.05;10.05;;;;;;;20.06;42.90;101626.78;5006665;28;20038;-44
2021/04/21 11:28:57;;;;;;;11.35;10.25;;;;;;;20.20;42.98;101629.22;5005361;28;20096;-41
2021/04/21 11:31:48;;;;;;;11.90;10.73;;;;;;;20.17;43.40;101621.78;5002809;28;20042;-40
2021/04/21 11:34:19;;;;;;;11.35;10.25;;;;;;;20.11;43.46;101631.97;5004933;28;20478;-42